sensor_id;sensor_type;location;lat;lon;timestamp;P1;durP1;ratioP1;P2;durP2;ratioP2
67528;SDS011;54366;51.980;5.856;2023-08-12T00:01:02;6.65;;;5.95;;
67528;SDS011;54366;51.980;5.856;2023-08-12T00:03:34;6.80;;;6.07;;
67528;SDS011;54366;51.980;5.856;2023-08-12T00:06:01;7.15;;;6.32;;
67528;SDS011;54366;51.980;5.856;2023-08-12T00:08:37;7.40;;;6.38;;
67528;SDS011;54366;51.980;5.856;2023-08-12T00:11:10;8.13;;;6.77;;
67528;SDS011;54366;51.980;5.856;2023-08-12T00:13:37;6.68;;;5.90;;
67528;SDS011;54366;51.980;5.856;2023-08-12T00:16:09;8.40;;;6.45;;
67528;SDS011;54366;51.980;5.856;2023-08-12T00:18:36;6.78;;;6.07;;
67528;SDS011;54366;51.980;5.856;2023-08-12T00:21:09;6.57;;;5.78;;
67528;SDS011;54366;51.980;5.856;2023-08-12T00:23:41;7.70;;;6.90;;
67528;SDS011;54366;51.980;5.856;2023-08-12T00:26:15;9.15;;;7.15;;
67528;SDS011;54366;51.980;5.856;2023-08-12T00:28:49;6.70;;;5.75;;
67528;SDS011;54366;51.980;5.856;2023-08-12T00:31:22;6.75;;;5.95;;
67528;SDS011;54366;51.980;5.856;2023-08-12T00:33:55;6.37;;;5.77;;
67528;SDS011;54366;51.980;5.856;2023-08-12T00:36:28;6.43;;;5.67;;
67528;SDS011;54366;51.980;5.856;2023-08-12T00:38:55;7.53;;;5.90;;
67528;SDS011;54366;51.980;5.856;2023-08-12T00:41:27;7.68;;;6.25;;
67528;SDS011;54366;51.980;5.856;2023-08-12T00:44:01;8.68;;;6.80;;
67528;SDS011;54366;51.980;5.856;2023-08-12T00:46:34;7.47;;;6.13;;
67528;SDS011;54366;51.980;5.856;2023-08-12T00:51:42;6.65;;;5.75;;
67528;SDS011;54366;51.980;5.856;2023-08-12T00:54:17;7.25;;;5.30;;
67528;SDS011;54366;51.980;5.856;2023-08-12T00:56:53;6.80;;;5.68;;
67528;SDS011;54366;51.980;5.856;2023-08-12T00:59:20;6.78;;;5.68;;
67528;SDS011;54366;51.980;5.856;2023-08-12T01:01:55;6.80;;;4.85;;
67528;SDS011;54366;51.980;5.856;2023-08-12T01:04:35;9.65;;;5.63;;
67528;SDS011;54366;51.980;5.856;2023-08-12T01:07:08;6.60;;;6.00;;
67528;SDS011;54366;51.980;5.856;2023-08-12T01:09:41;7.33;;;6.47;;
67528;SDS011;54366;51.980;5.856;2023-08-12T01:12:28;7.20;;;6.40;;
67528;SDS011;54366;51.980;5.856;2023-08-12T01:15:08;6.90;;;6.00;;
67528;SDS011;54366;51.980;5.856;2023-08-12T01:17:45;6.47;;;5.70;;
67528;SDS011;54366;51.980;5.856;2023-08-12T01:20:23;6.80;;;5.78;;
67528;SDS011;54366;51.980;5.856;2023-08-12T01:23:10;7.05;;;6.10;;
67528;SDS011;54366;51.980;5.856;2023-08-12T01:25:46;5.90;;;5.38;;
67528;SDS011;54366;51.980;5.856;2023-08-12T01:28:20;7.25;;;5.72;;
67528;SDS011;54366;51.980;5.856;2023-08-12T01:30:55;6.82;;;5.75;;
67528;SDS011;54366;51.980;5.856;2023-08-12T01:33:49;6.93;;;5.70;;
67528;SDS011;54366;51.980;5.856;2023-08-12T01:36:29;8.45;;;5.80;;
67528;SDS011;54366;51.980;5.856;2023-08-12T01:39:03;8.32;;;5.68;;
67528;SDS011;54366;51.980;5.856;2023-08-12T01:41:39;8.55;;;5.97;;
67528;SDS011;54366;51.980;5.856;2023-08-12T01:44:05;6.63;;;5.63;;
67528;SDS011;54366;51.980;5.856;2023-08-12T01:46:38;7.32;;;6.43;;
67528;SDS011;54366;51.980;5.856;2023-08-12T01:49:11;6.67;;;5.97;;
67528;SDS011;54366;51.980;5.856;2023-08-12T01:51:44;7.85;;;7.05;;
67528;SDS011;54366;51.980;5.856;2023-08-12T01:54:17;8.83;;;6.93;;
67528;SDS011;54366;51.980;5.856;2023-08-12T01:56:50;10.02;;;7.53;;
67528;SDS011;54366;51.980;5.856;2023-08-12T01:59:23;9.67;;;8.20;;
67528;SDS011;54366;51.980;5.856;2023-08-12T02:01:50;8.30;;;7.45;;
67528;SDS011;54366;51.980;5.856;2023-08-12T02:04:22;8.18;;;7.38;;
67528;SDS011;54366;51.980;5.856;2023-08-12T02:06:49;7.78;;;6.97;;
67528;SDS011;54366;51.980;5.856;2023-08-12T02:09:21;8.68;;;7.25;;
67528;SDS011;54366;51.980;5.856;2023-08-12T02:11:54;8.87;;;7.60;;
67528;SDS011;54366;51.980;5.856;2023-08-12T02:14:27;7.80;;;7.10;;
67528;SDS011;54366;51.980;5.856;2023-08-12T02:17:00;8.37;;;7.57;;
67528;SDS011;54366;51.980;5.856;2023-08-12T02:19:33;8.83;;;7.60;;
67528;SDS011;54366;51.980;5.856;2023-08-12T02:22:01;9.20;;;8.18;;
67528;SDS011;54366;51.980;5.856;2023-08-12T02:24:34;8.82;;;7.93;;
67528;SDS011;54366;51.980;5.856;2023-08-12T02:27:07;9.38;;;7.72;;
67528;SDS011;54366;51.980;5.856;2023-08-12T02:29:41;8.03;;;7.23;;
67528;SDS011;54366;51.980;5.856;2023-08-12T02:32:07;10.23;;;8.70;;
67528;SDS011;54366;51.980;5.856;2023-08-12T02:34:39;9.00;;;8.10;;
67528;SDS011;54366;51.980;5.856;2023-08-12T02:37:12;8.27;;;7.47;;
67528;SDS011;54366;51.980;5.856;2023-08-12T02:39:45;10.10;;;9.07;;
67528;SDS011;54366;51.980;5.856;2023-08-12T02:42:12;9.65;;;8.65;;
67528;SDS011;54366;51.980;5.856;2023-08-12T02:44:46;10.32;;;8.80;;
67528;SDS011;54366;51.980;5.856;2023-08-12T02:47:13;9.63;;;8.73;;
67528;SDS011;54366;51.980;5.856;2023-08-12T02:49:46;11.23;;;9.23;;
67528;SDS011;54366;51.980;5.856;2023-08-12T02:52:19;8.80;;;7.97;;
67528;SDS011;54366;51.980;5.856;2023-08-12T02:54:52;10.87;;;9.13;;
67528;SDS011;54366;51.980;5.856;2023-08-12T02:57:20;9.48;;;8.57;;
67528;SDS011;54366;51.980;5.856;2023-08-12T02:59:53;9.60;;;8.70;;
67528;SDS011;54366;51.980;5.856;2023-08-12T03:02:33;9.73;;;8.93;;
67528;SDS011;54366;51.980;5.856;2023-08-12T03:05:12;10.18;;;9.10;;
67528;SDS011;54366;51.980;5.856;2023-08-12T03:07:39;10.10;;;9.10;;
67528;SDS011;54366;51.980;5.856;2023-08-12T03:10:12;9.40;;;8.50;;
67528;SDS011;54366;51.980;5.856;2023-08-12T03:12:44;10.00;;;9.10;;
67528;SDS011;54366;51.980;5.856;2023-08-12T03:15:19;10.15;;;9.02;;
67528;SDS011;54366;51.980;5.856;2023-08-12T03:17:52;9.13;;;8.32;;
67528;SDS011;54366;51.980;5.856;2023-08-12T03:20:26;10.48;;;8.98;;
67528;SDS011;54366;51.980;5.856;2023-08-12T03:22:59;10.45;;;8.93;;
67528;SDS011;54366;51.980;5.856;2023-08-12T03:25:32;10.43;;;9.43;;
67528;SDS011;54366;51.980;5.856;2023-08-12T03:27:59;10.73;;;9.73;;
67528;SDS011;54366;51.980;5.856;2023-08-12T03:30:33;11.85;;;10.05;;
67528;SDS011;54366;51.980;5.856;2023-08-12T03:35:39;9.27;;;8.48;;
67528;SDS011;54366;51.980;5.856;2023-08-12T03:38:17;10.75;;;9.57;;
67528;SDS011;54366;51.980;5.856;2023-08-12T03:40:49;10.43;;;9.40;;
67528;SDS011;54366;51.980;5.856;2023-08-12T03:43:24;10.95;;;9.85;;
67528;SDS011;54366;51.980;5.856;2023-08-12T03:45:56;10.70;;;9.40;;
67528;SDS011;54366;51.980;5.856;2023-08-12T03:48:23;9.90;;;9.00;;
67528;SDS011;54366;51.980;5.856;2023-08-12T03:50:59;9.35;;;8.35;;
67528;SDS011;54366;51.980;5.856;2023-08-12T03:53:31;9.20;;;8.30;;
67528;SDS011;54366;51.980;5.856;2023-08-12T03:56:05;8.85;;;7.97;;
67528;SDS011;54366;51.980;5.856;2023-08-12T03:58:38;9.88;;;8.98;;
67528;SDS011;54366;51.980;5.856;2023-08-12T04:01:04;11.18;;;10.07;;
67528;SDS011;54366;51.980;5.856;2023-08-12T04:03:36;11.00;;;9.90;;
67528;SDS011;54366;51.980;5.856;2023-08-12T04:06:09;10.90;;;9.80;;
67528;SDS011;54366;51.980;5.856;2023-08-12T04:08:42;10.30;;;9.30;;
67528;SDS011;54366;51.980;5.856;2023-08-12T04:11:15;10.30;;;9.30;;
67528;SDS011;54366;51.980;5.856;2023-08-12T04:13:48;10.25;;;9.25;;
67528;SDS011;54366;51.980;5.856;2023-08-12T04:16:21;10.30;;;9.30;;
67528;SDS011;54366;51.980;5.856;2023-08-12T04:18:48;10.45;;;9.45;;
67528;SDS011;54366;51.980;5.856;2023-08-12T04:21:22;9.83;;;8.83;;
67528;SDS011;54366;51.980;5.856;2023-08-12T04:23:48;10.48;;;9.48;;
67528;SDS011;54366;51.980;5.856;2023-08-12T04:26:22;8.85;;;7.95;;
67528;SDS011;54366;51.980;5.856;2023-08-12T04:28:48;10.20;;;9.25;;
67528;SDS011;54366;51.980;5.856;2023-08-12T04:31:21;10.38;;;9.38;;
67528;SDS011;54366;51.980;5.856;2023-08-12T04:33:49;9.20;;;8.30;;
67528;SDS011;54366;51.980;5.856;2023-08-12T04:36:27;10.50;;;9.25;;
67528;SDS011;54366;51.980;5.856;2023-08-12T04:38:54;10.90;;;9.80;;
67528;SDS011;54366;51.980;5.856;2023-08-12T04:41:27;12.00;;;10.73;;
67528;SDS011;54366;51.980;5.856;2023-08-12T04:43:55;10.93;;;9.73;;
67528;SDS011;54366;51.980;5.856;2023-08-12T04:46:30;10.13;;;9.10;;
67528;SDS011;54366;51.980;5.856;2023-08-12T04:49:03;11.95;;;10.45;;
67528;SDS011;54366;51.980;5.856;2023-08-12T04:51:37;10.52;;;9.52;;
67528;SDS011;54366;51.980;5.856;2023-08-12T04:54:11;11.13;;;10.13;;
67528;SDS011;54366;51.980;5.856;2023-08-12T04:56:44;10.40;;;9.40;;
67528;SDS011;54366;51.980;5.856;2023-08-12T04:59:16;12.13;;;10.93;;
67528;SDS011;54366;51.980;5.856;2023-08-12T05:01:57;11.52;;;10.43;;
67528;SDS011;54366;51.980;5.856;2023-08-12T05:04:30;11.32;;;10.20;;
67528;SDS011;54366;51.980;5.856;2023-08-12T05:06:57;12.00;;;10.80;;
67528;SDS011;54366;51.980;5.856;2023-08-12T05:09:29;12.63;;;11.38;;
67528;SDS011;54366;51.980;5.856;2023-08-12T05:12:03;10.13;;;9.13;;
67528;SDS011;54366;51.980;5.856;2023-08-12T05:14:35;10.93;;;9.75;;
67528;SDS011;54366;51.980;5.856;2023-08-12T05:17:02;9.80;;;8.90;;
67528;SDS011;54366;51.980;5.856;2023-08-12T05:22:10;11.40;;;10.32;;
67528;SDS011;54366;51.980;5.856;2023-08-12T05:24:42;13.20;;;11.90;;
67528;SDS011;54366;51.980;5.856;2023-08-12T05:27:15;9.60;;;8.63;;
67528;SDS011;54366;51.980;5.856;2023-08-12T05:29:42;10.68;;;9.68;;
67528;SDS011;54366;51.980;5.856;2023-08-12T05:32:15;8.38;;;7.57;;
67528;SDS011;54366;51.980;5.856;2023-08-12T05:34:41;8.95;;;7.75;;
67528;SDS011;54366;51.980;5.856;2023-08-12T05:37:13;10.10;;;9.05;;
67528;SDS011;54366;51.980;5.856;2023-08-12T05:39:46;12.52;;;11.30;;
67528;SDS011;54366;51.980;5.856;2023-08-12T05:42:19;10.95;;;8.80;;
67528;SDS011;54366;51.980;5.856;2023-08-12T05:44:52;9.03;;;8.23;;
67528;SDS011;54366;51.980;5.856;2023-08-12T05:47:19;9.65;;;8.65;;
67528;SDS011;54366;51.980;5.856;2023-08-12T05:49:51;8.40;;;7.60;;
67528;SDS011;54366;51.980;5.856;2023-08-12T05:52:24;8.95;;;7.88;;
67528;SDS011;54366;51.980;5.856;2023-08-12T05:54:57;7.30;;;6.60;;
67528;SDS011;54366;51.980;5.856;2023-08-12T05:57:24;8.52;;;7.32;;
67528;SDS011;54366;51.980;5.856;2023-08-12T05:59:56;6.38;;;5.78;;
67528;SDS011;54366;51.980;5.856;2023-08-12T06:02:37;6.93;;;5.70;;
67528;SDS011;54366;51.980;5.856;2023-08-12T06:05:17;7.53;;;6.70;;
67528;SDS011;54366;51.980;5.856;2023-08-12T06:07:43;7.75;;;7.00;;
67528;SDS011;54366;51.980;5.856;2023-08-12T06:10:16;8.73;;;6.88;;
67528;SDS011;54366;51.980;5.856;2023-08-12T06:12:42;7.78;;;7.00;;
67528;SDS011;54366;51.980;5.856;2023-08-12T06:15:14;5.50;;;4.72;;
67528;SDS011;54366;51.980;5.856;2023-08-12T06:17:47;5.40;;;4.90;;
67528;SDS011;54366;51.980;5.856;2023-08-12T06:20:20;6.40;;;5.78;;
67528;SDS011;54366;51.980;5.856;2023-08-12T06:22:54;4.45;;;4.05;;
67528;SDS011;54366;51.980;5.856;2023-08-12T06:25:27;5.40;;;4.90;;
67528;SDS011;54366;51.980;5.856;2023-08-12T06:27:53;6.85;;;6.00;;
67528;SDS011;54366;51.980;5.856;2023-08-12T06:30:26;5.07;;;4.30;;
67528;SDS011;54366;51.980;5.856;2023-08-12T06:32:58;6.25;;;5.15;;
67528;SDS011;54366;51.980;5.856;2023-08-12T06:35:31;5.78;;;5.05;;
67528;SDS011;54366;51.980;5.856;2023-08-12T06:38:05;5.35;;;4.85;;
67528;SDS011;54366;51.980;5.856;2023-08-12T06:40:37;5.13;;;3.47;;
67528;SDS011;54366;51.980;5.856;2023-08-12T06:43:10;3.70;;;3.00;;
67528;SDS011;54366;51.980;5.856;2023-08-12T06:45:37;2.60;;;2.40;;
67528;SDS011;54366;51.980;5.856;2023-08-12T06:48:09;3.70;;;3.28;;
67528;SDS011;54366;51.980;5.856;2023-08-12T06:50:42;2.40;;;2.20;;
67528;SDS011;54366;51.980;5.856;2023-08-12T06:53:15;3.83;;;3.08;;
67528;SDS011;54366;51.980;5.856;2023-08-12T06:55:45;3.75;;;3.28;;
67528;SDS011;54366;51.980;5.856;2023-08-12T06:58:18;3.25;;;2.95;;
67528;SDS011;54366;51.980;5.856;2023-08-12T07:00:44;3.10;;;2.83;;
67528;SDS011;54366;51.980;5.856;2023-08-12T07:03:23;3.53;;;2.70;;
67528;SDS011;54366;51.980;5.856;2023-08-12T07:05:55;4.43;;;3.00;;
67528;SDS011;54366;51.980;5.856;2023-08-12T07:08:28;4.15;;;3.60;;
67528;SDS011;54366;51.980;5.856;2023-08-12T07:10:55;2.83;;;2.53;;
67528;SDS011;54366;51.980;5.856;2023-08-12T07:13:27;3.38;;;3.08;;
67528;SDS011;54366;51.980;5.856;2023-08-12T07:16:01;4.35;;;3.20;;
67528;SDS011;54366;51.980;5.856;2023-08-12T07:18:33;6.22;;;3.80;;
67528;SDS011;54366;51.980;5.856;2023-08-12T07:21:06;5.18;;;3.28;;
67528;SDS011;54366;51.980;5.856;2023-08-12T07:23:33;3.15;;;2.85;;
67528;SDS011;54366;51.980;5.856;2023-08-12T07:26:05;5.13;;;3.90;;
67528;SDS011;54366;51.980;5.856;2023-08-12T07:28:39;4.00;;;3.50;;
67528;SDS011;54366;51.980;5.856;2023-08-12T07:31:12;3.75;;;3.45;;
67528;SDS011;54366;51.980;5.856;2023-08-12T07:33:38;3.92;;;3.63;;
67528;SDS011;54366;51.980;5.856;2023-08-12T07:36:11;3.85;;;3.45;;
67528;SDS011;54366;51.980;5.856;2023-08-12T07:38:43;3.70;;;3.40;;
67528;SDS011;54366;51.980;5.856;2023-08-12T07:41:16;4.00;;;3.50;;
67528;SDS011;54366;51.980;5.856;2023-08-12T07:43:50;4.60;;;3.90;;
67528;SDS011;54366;51.980;5.856;2023-08-12T07:46:22;3.17;;;2.83;;
67528;SDS011;54366;51.980;5.856;2023-08-12T07:48:56;3.88;;;2.92;;
67528;SDS011;54366;51.980;5.856;2023-08-12T07:51:29;3.35;;;3.05;;
67528;SDS011;54366;51.980;5.856;2023-08-12T07:54:02;4.60;;;3.40;;
67528;SDS011;54366;51.980;5.856;2023-08-12T07:56:35;3.60;;;3.30;;
67528;SDS011;54366;51.980;5.856;2023-08-12T07:59:08;3.13;;;2.55;;
67528;SDS011;54366;51.980;5.856;2023-08-12T08:01:47;3.35;;;3.05;;
67528;SDS011;54366;51.980;5.856;2023-08-12T08:04:27;4.47;;;3.17;;
67528;SDS011;54366;51.980;5.856;2023-08-12T08:07:00;2.58;;;2.28;;
67528;SDS011;54366;51.980;5.856;2023-08-12T08:09:33;2.55;;;2.30;;
67528;SDS011;54366;51.980;5.856;2023-08-12T08:12:06;3.33;;;2.45;;
67528;SDS011;54366;51.980;5.856;2023-08-12T08:17:12;2.17;;;1.98;;
67528;SDS011;54366;51.980;5.856;2023-08-12T08:19:46;3.33;;;2.37;;
67528;SDS011;54366;51.980;5.856;2023-08-12T08:22:12;2.00;;;1.90;;
67528;SDS011;54366;51.980;5.856;2023-08-12T08:24:45;2.00;;;1.60;;
67528;SDS011;54366;51.980;5.856;2023-08-12T08:27:18;1.95;;;1.80;;
67528;SDS011;54366;51.980;5.856;2023-08-12T08:29:50;1.42;;;1.33;;
67528;SDS011;54366;51.980;5.856;2023-08-12T08:32:24;0.80;;;0.70;;
67528;SDS011;54366;51.980;5.856;2023-08-12T08:34:51;1.40;;;1.30;;
67528;SDS011;54366;51.980;5.856;2023-08-12T08:37:24;1.20;;;1.17;;
67528;SDS011;54366;51.980;5.856;2023-08-12T08:39:50;1.77;;;1.20;;
67528;SDS011;54366;51.980;5.856;2023-08-12T08:42:23;1.38;;;1.00;;
67528;SDS011;54366;51.980;5.856;2023-08-12T08:47:26;1.50;;;1.17;;
67528;SDS011;54366;51.980;5.856;2023-08-12T08:50:00;0.95;;;0.95;;
67528;SDS011;54366;51.980;5.856;2023-08-12T08:52:26;1.40;;;1.30;;
67528;SDS011;54366;51.980;5.856;2023-08-12T08:55:01;0.85;;;0.85;;
67528;SDS011;54366;51.980;5.856;2023-08-12T08:57:34;1.70;;;1.60;;
67528;SDS011;54366;51.980;5.856;2023-08-12T09:00:09;1.25;;;1.15;;
67528;SDS011;54366;51.980;5.856;2023-08-12T09:02:36;1.20;;;1.10;;
67528;SDS011;54366;51.980;5.856;2023-08-12T09:05:16;1.90;;;1.50;;
67528;SDS011;54366;51.980;5.856;2023-08-12T09:07:50;1.50;;;1.40;;
67528;SDS011;54366;51.980;5.856;2023-08-12T09:10:17;1.27;;;1.23;;
67528;SDS011;54366;51.980;5.856;2023-08-12T09:12:54;1.15;;;1.08;;
67528;SDS011;54366;51.980;5.856;2023-08-12T09:15:21;1.05;;;1.00;;
67528;SDS011;54366;51.980;5.856;2023-08-12T09:17:54;1.10;;;1.10;;
67528;SDS011;54366;51.980;5.856;2023-08-12T09:20:20;1.40;;;1.30;;
67528;SDS011;54366;51.980;5.856;2023-08-12T09:22:56;0.90;;;0.90;;
67528;SDS011;54366;51.980;5.856;2023-08-12T09:25:30;1.40;;;1.30;;
67528;SDS011;54366;51.980;5.856;2023-08-12T09:27:59;0.63;;;0.63;;
67528;SDS011;54366;51.980;5.856;2023-08-12T09:30:32;0.60;;;0.60;;
67528;SDS011;54366;51.980;5.856;2023-08-12T09:33:05;1.15;;;0.40;;
67528;SDS011;54366;51.980;5.856;2023-08-12T09:35:40;1.00;;;0.50;;
67528;SDS011;54366;51.980;5.856;2023-08-12T09:40:47;0.85;;;0.70;;
67528;SDS011;54366;51.980;5.856;2023-08-12T09:43:13;0.60;;;0.60;;
67528;SDS011;54366;51.980;5.856;2023-08-12T09:45:49;0.88;;;0.40;;
67528;SDS011;54366;51.980;5.856;2023-08-12T09:48:22;0.68;;;0.40;;
67528;SDS011;54366;51.980;5.856;2023-08-12T09:50:48;0.30;;;0.30;;
67528;SDS011;54366;51.980;5.856;2023-08-12T09:53:22;0.20;;;0.20;;
67528;SDS011;54366;51.980;5.856;2023-08-12T09:55:55;0.20;;;0.20;;
67528;SDS011;54366;51.980;5.856;2023-08-12T09:58:36;0.20;;;0.20;;
67528;SDS011;54366;51.980;5.856;2023-08-12T10:01:03;0.30;;;0.30;;
67528;SDS011;54366;51.980;5.856;2023-08-12T10:03:48;0.20;;;0.20;;
67528;SDS011;54366;51.980;5.856;2023-08-12T10:06:29;0.20;;;0.20;;
67528;SDS011;54366;51.980;5.856;2023-08-12T10:09:02;0.10;;;0.10;;
67528;SDS011;54366;51.980;5.856;2023-08-12T10:11:28;0.22;;;0.20;;
67528;SDS011;54366;51.980;5.856;2023-08-12T10:14:02;1.03;;;0.30;;
67528;SDS011;54366;51.980;5.856;2023-08-12T10:16:37;0.20;;;0.20;;
67528;SDS011;54366;51.980;5.856;2023-08-12T10:19:04;0.32;;;0.20;;
67528;SDS011;54366;51.980;5.856;2023-08-12T10:24:11;0.28;;;0.28;;
67528;SDS011;54366;51.980;5.856;2023-08-12T10:26:45;0.20;;;0.20;;
67528;SDS011;54366;51.980;5.856;2023-08-12T10:29:12;0.30;;;0.20;;
67528;SDS011;54366;51.980;5.856;2023-08-12T10:31:45;0.50;;;0.30;;
67528;SDS011;54366;51.980;5.856;2023-08-12T10:34:19;0.32;;;0.32;;
67528;SDS011;54366;51.980;5.856;2023-08-12T10:36:57;0.70;;;0.50;;
67528;SDS011;54366;51.980;5.856;2023-08-12T10:39:35;1.55;;;0.60;;
67528;SDS011;54366;51.980;5.856;2023-08-12T10:42:08;0.90;;;0.80;;
67528;SDS011;54366;51.980;5.856;2023-08-12T10:44:49;1.45;;;1.02;;
67528;SDS011;54366;51.980;5.856;2023-08-12T10:47:23;1.48;;;0.80;;
67528;SDS011;54366;51.980;5.856;2023-08-12T10:49:56;0.80;;;0.60;;
67528;SDS011;54366;51.980;5.856;2023-08-12T10:52:30;0.93;;;0.82;;
67528;SDS011;54366;51.980;5.856;2023-08-12T10:55:38;1.30;;;0.73;;
67528;SDS011;54366;51.980;5.856;2023-08-12T10:58:08;1.35;;;0.90;;
67528;SDS011;54366;51.980;5.856;2023-08-12T11:00:41;1.27;;;0.70;;
67528;SDS011;54366;51.980;5.856;2023-08-12T11:03:20;1.40;;;0.83;;
67528;SDS011;54366;51.980;5.856;2023-08-12T11:06:00;1.30;;;0.70;;
67528;SDS011;54366;51.980;5.856;2023-08-12T11:08:35;3.25;;;0.90;;
67528;SDS011;54366;51.980;5.856;2023-08-12T11:11:02;3.00;;;1.02;;
67528;SDS011;54366;51.980;5.856;2023-08-12T11:13:46;2.15;;;0.75;;
67528;SDS011;54366;51.980;5.856;2023-08-12T11:16:34;1.73;;;0.70;;
67528;SDS011;54366;51.980;5.856;2023-08-12T11:19:08;1.95;;;0.88;;
67528;SDS011;54366;51.980;5.856;2023-08-12T11:21:41;1.00;;;0.50;;
67528;SDS011;54366;51.980;5.856;2023-08-12T11:24:08;2.88;;;1.00;;
67528;SDS011;54366;51.980;5.856;2023-08-12T11:26:41;2.05;;;0.75;;
67528;SDS011;54366;51.980;5.856;2023-08-12T11:29:14;1.60;;;0.83;;
67528;SDS011;54366;51.980;5.856;2023-08-12T11:31:47;2.13;;;0.80;;
67528;SDS011;54366;51.980;5.856;2023-08-12T11:34:20;1.97;;;0.80;;
67528;SDS011;54366;51.980;5.856;2023-08-12T11:36:46;1.95;;;1.00;;
67528;SDS011;54366;51.980;5.856;2023-08-12T11:39:19;1.30;;;0.75;;
67528;SDS011;54366;51.980;5.856;2023-08-12T11:41:52;1.30;;;0.80;;
67528;SDS011;54366;51.980;5.856;2023-08-12T11:44:25;2.43;;;1.20;;
67528;SDS011;54366;51.980;5.856;2023-08-12T11:46:58;2.67;;;1.13;;
67528;SDS011;54366;51.980;5.856;2023-08-12T11:49:31;2.20;;;1.10;;
67528;SDS011;54366;51.980;5.856;2023-08-12T11:52:04;1.80;;;1.05;;
67528;SDS011;54366;51.980;5.856;2023-08-12T11:54:30;3.95;;;1.52;;
67528;SDS011;54366;51.980;5.856;2023-08-12T11:57:04;4.47;;;1.10;;
67528;SDS011;54366;51.980;5.856;2023-08-12T11:59:31;2.72;;;1.00;;
67528;SDS011;54366;51.980;5.856;2023-08-12T12:02:04;2.35;;;1.10;;
67528;SDS011;54366;51.980;5.856;2023-08-12T12:04:37;2.33;;;0.80;;
67528;SDS011;54366;51.980;5.856;2023-08-12T12:07:23;2.07;;;1.10;;
67528;SDS011;54366;51.980;5.856;2023-08-12T12:09:58;3.60;;;1.40;;
67528;SDS011;54366;51.980;5.856;2023-08-12T12:12:33;2.93;;;1.20;;
67528;SDS011;54366;51.980;5.856;2023-08-12T12:15:07;4.10;;;1.20;;
67528;SDS011;54366;51.980;5.856;2023-08-12T12:17:40;2.63;;;1.20;;
67528;SDS011;54366;51.980;5.856;2023-08-12T12:20:06;3.90;;;1.60;;
67528;SDS011;54366;51.980;5.856;2023-08-12T12:22:43;3.60;;;1.35;;
67528;SDS011;54366;51.980;5.856;2023-08-12T12:25:11;3.97;;;1.38;;
67528;SDS011;54366;51.980;5.856;2023-08-12T12:27:46;3.95;;;1.38;;
67528;SDS011;54366;51.980;5.856;2023-08-12T12:30:19;3.10;;;1.30;;
67528;SDS011;54366;51.980;5.856;2023-08-12T12:32:52;4.63;;;1.35;;
67528;SDS011;54366;51.980;5.856;2023-08-12T12:35:25;3.80;;;1.38;;
67528;SDS011;54366;51.980;5.856;2023-08-12T12:37:52;3.70;;;1.20;;
67528;SDS011;54366;51.980;5.856;2023-08-12T12:40:25;3.13;;;1.33;;
67528;SDS011;54366;51.980;5.856;2023-08-12T12:42:58;2.67;;;1.25;;
67528;SDS011;54366;51.980;5.856;2023-08-12T12:45:24;2.97;;;1.10;;
67528;SDS011;54366;51.980;5.856;2023-08-12T12:47:57;3.92;;;1.38;;
67528;SDS011;54366;51.980;5.856;2023-08-12T12:50:30;3.00;;;1.10;;
67528;SDS011;54366;51.980;5.856;2023-08-12T12:53:03;2.78;;;1.23;;
67528;SDS011;54366;51.980;5.856;2023-08-12T12:55:36;5.43;;;1.40;;
67528;SDS011;54366;51.980;5.856;2023-08-12T12:58:09;2.70;;;1.23;;
67528;SDS011;54366;51.980;5.856;2023-08-12T13:00:42;2.47;;;0.80;;
67528;SDS011;54366;51.980;5.856;2023-08-12T13:03:08;3.80;;;1.23;;
67528;SDS011;54366;51.980;5.856;2023-08-12T13:05:47;3.28;;;1.00;;
67528;SDS011;54366;51.980;5.856;2023-08-12T13:08:20;2.67;;;1.05;;
67528;SDS011;54366;51.980;5.856;2023-08-12T13:10:53;3.22;;;1.13;;
67528;SDS011;54366;51.980;5.856;2023-08-12T13:13:19;4.75;;;1.30;;
67528;SDS011;54366;51.980;5.856;2023-08-12T13:15:52;4.10;;;1.27;;
67528;SDS011;54366;51.980;5.856;2023-08-12T13:18:25;2.75;;;0.82;;
67528;SDS011;54366;51.980;5.856;2023-08-12T13:20:58;3.58;;;1.35;;
67528;SDS011;54366;51.980;5.856;2023-08-12T13:23:31;3.60;;;1.20;;
67528;SDS011;54366;51.980;5.856;2023-08-12T13:25:57;3.13;;;1.20;;
67528;SDS011;54366;51.980;5.856;2023-08-12T13:28:37;2.90;;;1.00;;
67528;SDS011;54366;51.980;5.856;2023-08-12T13:31:23;4.75;;;1.38;;
67528;SDS011;54366;51.980;5.856;2023-08-12T13:33:57;3.22;;;1.20;;
67528;SDS011;54366;51.980;5.856;2023-08-12T13:36:30;3.63;;;1.60;;
67528;SDS011;54366;51.980;5.856;2023-08-12T13:39:03;3.03;;;1.00;;
67528;SDS011;54366;51.980;5.856;2023-08-12T13:41:29;2.63;;;1.20;;
67528;SDS011;54366;51.980;5.856;2023-08-12T13:44:02;3.90;;;1.23;;
67528;SDS011;54366;51.980;5.856;2023-08-12T13:46:35;3.35;;;1.05;;
67528;SDS011;54366;51.980;5.856;2023-08-12T13:49:08;3.60;;;1.20;;
67528;SDS011;54366;51.980;5.856;2023-08-12T13:51:41;2.97;;;1.17;;
67528;SDS011;54366;51.980;5.856;2023-08-12T13:54:14;3.72;;;1.17;;
67528;SDS011;54366;51.980;5.856;2023-08-12T13:56:47;3.75;;;1.38;;
67528;SDS011;54366;51.980;5.856;2023-08-12T13:59:20;4.13;;;1.10;;
67528;SDS011;54366;51.980;5.856;2023-08-12T14:01:53;4.13;;;1.50;;
67528;SDS011;54366;51.980;5.856;2023-08-12T14:04:26;3.30;;;1.00;;
67528;SDS011;54366;51.980;5.856;2023-08-12T14:07:06;3.40;;;1.27;;
67528;SDS011;54366;51.980;5.856;2023-08-12T14:09:32;3.00;;;1.25;;
67528;SDS011;54366;51.980;5.856;2023-08-12T14:14:39;2.85;;;1.10;;
67528;SDS011;54366;51.980;5.856;2023-08-12T14:17:05;4.38;;;1.58;;
67528;SDS011;54366;51.980;5.856;2023-08-12T14:19:38;3.42;;;1.15;;
67528;SDS011;54366;51.980;5.856;2023-08-12T14:22:04;4.25;;;1.30;;
67528;SDS011;54366;51.980;5.856;2023-08-12T14:24:37;2.92;;;1.30;;
67528;SDS011;54366;51.980;5.856;2023-08-12T14:27:10;4.03;;;1.45;;
67528;SDS011;54366;51.980;5.856;2023-08-12T14:29:43;4.25;;;1.30;;
67528;SDS011;54366;51.980;5.856;2023-08-12T14:32:16;2.63;;;1.05;;
67528;SDS011;54366;51.980;5.856;2023-08-12T14:34:51;2.53;;;1.10;;
67528;SDS011;54366;51.980;5.856;2023-08-12T14:37:24;3.67;;;1.30;;
67528;SDS011;54366;51.980;5.856;2023-08-12T14:39:57;3.88;;;1.55;;
67528;SDS011;54366;51.980;5.856;2023-08-12T14:42:30;2.72;;;1.23;;
67528;SDS011;54366;51.980;5.856;2023-08-12T14:45:03;2.72;;;1.17;;
67528;SDS011;54366;51.980;5.856;2023-08-12T14:47:36;3.38;;;1.38;;
67528;SDS011;54366;51.980;5.856;2023-08-12T14:50:09;3.70;;;1.13;;
67528;SDS011;54366;51.980;5.856;2023-08-12T14:52:35;3.33;;;1.38;;
67528;SDS011;54366;51.980;5.856;2023-08-12T14:55:08;3.63;;;1.05;;
67528;SDS011;54366;51.980;5.856;2023-08-12T14:57:34;2.75;;;1.30;;
67528;SDS011;54366;51.980;5.856;2023-08-12T15:00:08;4.07;;;1.50;;
67528;SDS011;54366;51.980;5.856;2023-08-12T15:02:43;5.72;;;1.30;;
67528;SDS011;54366;51.980;5.856;2023-08-12T15:05:22;3.53;;;1.40;;
67528;SDS011;54366;51.980;5.856;2023-08-12T15:08:02;5.05;;;1.15;;
67528;SDS011;54366;51.980;5.856;2023-08-12T15:10:36;3.20;;;1.27;;
67528;SDS011;54366;51.980;5.856;2023-08-12T15:13:02;4.00;;;1.50;;
67528;SDS011;54366;51.980;5.856;2023-08-12T15:15:35;3.85;;;1.50;;
67528;SDS011;54366;51.980;5.856;2023-08-12T15:18:08;5.97;;;1.67;;
67528;SDS011;54366;51.980;5.856;2023-08-12T15:20:34;2.88;;;1.38;;
67528;SDS011;54366;51.980;5.856;2023-08-12T15:23:07;2.58;;;1.15;;
67528;SDS011;54366;51.980;5.856;2023-08-12T15:25:42;3.15;;;1.00;;
67528;SDS011;54366;51.980;5.856;2023-08-12T15:28:09;3.97;;;1.30;;
67528;SDS011;54366;51.980;5.856;2023-08-12T15:30:43;4.05;;;1.27;;
67528;SDS011;54366;51.980;5.856;2023-08-12T15:33:19;3.35;;;1.20;;
67528;SDS011;54366;51.980;5.856;2023-08-12T15:35:52;5.85;;;1.48;;
67528;SDS011;54366;51.980;5.856;2023-08-12T15:38:25;4.03;;;1.35;;